首页
METAR-TAF:

METAR-TAF

机场 :

拉纳卡国际机场

拉纳卡, 塞浦路斯

纬度: 34-53N, 经度: 033-38E, 海拔: 2米

当前天气观测

该预报发布于27分钟前的23:00 UTC
风速8节,风向北转西北
温度 26°C
湿度 28%
气压 1015 hPa
能见度10公里或以上
1500米以下无云,无积雨云

METAR: LCLK 132300Z 34008KT CAVOK 26/06 Q1015 NOSIG

时间: 02:27 (23:27 UTC)

预报

该预报发布于5小时和57分钟前的17:30 UTC
预报有效从13日的 18点(UTC)到 14日的 18点(UTC)
风速9节,风向北转西北
能见度10公里或以上
1500米以下无云,无积雨云
成为
从 14日的 06点(UTC)到 14日的 10点(UTC)
风速13节,风向东北
成为
从 14日的 15点(UTC)到 14日的 18点(UTC)
风速8节,风向

TAF: LCLK 131730Z 1318/1418 34009KT CAVOK BECMG 1406/1410 05013KT BECMG 1415/1418 35008KT

超过4000个机场的气象观测和天气预报(METAR&TAF报告)。

可查询的气象台以黄色和红色小点在地图上表示。

将鼠标移到小点上方,可查看气象台名称。

然后点击查看天气观测和预报。

如需切换地图:点击带黑十字的绿色按钮放大地图;点击带横线的绿色按钮缩小地图;或者点击绿色箭头查看邻近地区的地图。


METAR-TAF: